• Join FlightAware (Why Join?)
  • Login
  • US Flag 
07:27PM EDT


 

Airport Tracker/Info


-or-


 

Live Flight TrackerFlight Track Log ✈ EJA625 ✈ 06-May-2012 ✈ KSNA - KRVS

Flight Track Log - Related Links

Times and Time Zones

All times are in EDT time to prevent confusion due to time zone crossing. See the EJA625 flight status page for this flight to view local times or setup timezone preferences in your user account.

Time Position Orientation Groundspeed Altitude Reporting Facility
EDT Latitude Longitude Course Direction KTS MPH feet Rate Location/Type
01:18PM 33.6167 -117.9000 101° East 181 208 2,200  Level Southern California TRACON
01:22PM 33.5714 -117.6194 82° East 267 307 11,400 2,220 Climbing Los Angeles Center
01:23PM 33.5831 -117.5175 87° East 295 339 14,400 2,700 Climbing Los Angeles Center
01:24PM 33.5883 -117.4103 88° East 308 354 16,900 2,400 Climbing Los Angeles Center
01:25PM 33.5914 -117.3006 86° East 321 369 19,300 2,400 Climbing Los Angeles Center
01:26PM 33.5989 -117.1736 89° East 334 384 21,800 2,160 Climbing Los Angeles Center
01:27PM 33.6000 -117.0514 87° East 346 398 23,700 1,800 Climbing Los Angeles Center
01:28PM 33.6050 -116.9267 87° East 365 420 25,500 1,800 Climbing Los Angeles Center
01:29PM 33.6100 -116.7947 88° East 378 435 27,300 1,500 Climbing Los Angeles Center
01:30PM 33.6147 -116.6600 88° East 390 449 28,600 1,380 Climbing Los Angeles Center
01:31PM 33.6194 -116.5253 89° East 401 461 30,100 1,500 Climbing Los Angeles Center
01:32PM 33.6219 -116.3856 87° East 406 467 31,700 1,500 Climbing Los Angeles Center
01:33PM 33.6283 -116.2458 90° East 411 473 33,100 1,380 Climbing Los Angeles Center
01:34PM 33.6286 -116.1086 91° East 411 473 34,500 1,320 Climbing Los Angeles Center
01:35PM 33.6264 -115.9689 92° East 411 473 35,800 1,440 Climbing Los Angeles Center
01:36PM 33.6219 -115.8344 91° East 411 473 37,400 1,200 Climbing Los Angeles Center
01:37PM 33.6194 -115.6997 91° East 406 467 38,200 840 Climbing Los Angeles Center
01:38PM 33.6169 -115.5675 91° East 401 461 39,100 780 Climbing Los Angeles Center
01:39PM 33.6142 -115.4278 92° East 401 461 39,800 600 Climbing Los Angeles Center
01:40PM 33.6114 -115.3206 91° East 401 461 40,400 600 Climbing Los Angeles Center
01:41PM 33.6081 -115.1583 93° East 401 461 41,000 240 Climbing Los Angeles Center
01:42PM 33.6028 -115.0189 92° East 407 468 41,000  Level Los Angeles Center
01:43PM 33.5992 -114.8817 88° East 407 468 41,000  Level Los Angeles Center
01:44PM 33.6042 -114.7394 80° East 417 480 41,000  Level Los Angeles Center
01:45PM 33.6253 -114.5944 76° East 424 488 41,000  Level Los Angeles Center
01:46PM 33.6547 -114.4542 76° East 429 494 41,000  Level Los Angeles Center
01:47PM 33.6839 -114.3114 76° East 434 499 41,000  Level Los Angeles Center
01:48PM 33.7131 -114.1683 78° East 434 499 41,000  Level Los Angeles Center
01:49PM 33.7400 -114.0206 77° East 434 499 41,000  Level Los Angeles Center
01:51PM 33.7881 -113.7736 77° East 447 514 41,000  Level Albuquerque Center
01:52PM 33.8164 -113.6261 77° East 449 517 41,000  Level Albuquerque Center
01:53PM 33.8442 -113.4764 78° East 450 518 41,000  Level Albuquerque Center
01:54PM 33.8714 -113.3278 77° East 450 518 41,000  Level Albuquerque Center
01:55PM 33.8997 -113.1775 78° East 452 520 41,000  Level Albuquerque Center
01:57PM 33.9536 -112.8769 77° East 454 522 41,000  Level Albuquerque Center
01:58PM 33.9814 -112.7267 78° East 454 522 41,000  Level Albuquerque Center
01:59PM 34.0139 -112.5475 78° East 450 518 41,000  Level Albuquerque Center
02:03PM 34.1222 -111.9306 78° East 453 521 41,000  Level Albuquerque Center
02:08PM 34.2519 -111.1717 79° East 457 526 41,000  Level Albuquerque Center
02:09PM 34.2767 -111.0183 79° East 458 527 41,000  Level Albuquerque Center
02:10PM 34.3017 -110.8653 78° East 458 527 41,000  Level Albuquerque Center
02:11PM 34.3331 -110.6794 78° East 461 531 41,000  Level Albuquerque Center
02:12PM 34.3586 -110.5269 79° East 459 528 41,000  Level Albuquerque Center
02:13PM 34.3850 -110.3636 79° East 459 528 41,000  Level Albuquerque Center
02:15PM 34.4075 -110.2178 79° East 460 529 41,000  Level Albuquerque Center
02:16PM 34.4342 -110.0456 80° East 464 534 41,000  Level Albuquerque Center
02:17PM 34.4564 -109.8994 79° East 463 533 41,000  Level Albuquerque Center
02:18PM 34.4836 -109.7300 79° East 461 531 41,000  Level Albuquerque Center
02:19PM 34.5064 -109.5831 80° East 463 533 41,000  Level Albuquerque Center
02:20PM 34.5356 -109.3858 79° East 465 535 41,000  Level Albuquerque Center
02:21PM 34.5617 -109.2147 80° East 465 535 41,000  Level Albuquerque Center
02:22PM 34.5836 -109.0694 80° East 462 532 41,000  Level Albuquerque Center
02:23PM 34.6094 -108.8964 80° East 465 535 41,000  Level Albuquerque Center
02:24PM 34.6308 -108.7500 80° East 464 534 41,000  Level Albuquerque Center
02:25PM 34.6561 -108.5778 80° East 464 534 41,000  Level Albuquerque Center
02:26PM 34.6792 -108.4200 80° East 463 533 41,000  Level Albuquerque Center
02:27PM 34.7006 -108.2667 80° East 462 532 41,000  Level Albuquerque Center
02:28PM 34.7228 -108.1125 81° East 463 533 41,000  Level Albuquerque Center
02:30PM 34.7436 -107.9583 80° East 463 533 41,000  Level Albuquerque Center
02:31PM 34.7700 -107.7697 81° East 463 533 41,000  Level Albuquerque Center
02:32PM 34.7942 -107.5906 81° East 460 529 41,000  Level Albuquerque Center
02:33PM 34.8144 -107.4372 80° East 461 531 41,000  Level Albuquerque Center
02:34PM 34.8356 -107.2836 81° East 462 532 41,000  Level Albuquerque Center
02:35PM 34.8589 -107.1083 81° East 461 531 41,000  Level Albuquerque Center
02:36PM 34.8781 -106.9606 81° East 462 532 41,000  Level Albuquerque Center
02:37PM 34.8994 -106.7900 81° East 459 528 41,000  Level Albuquerque Center
02:38PM 34.9181 -106.6444 81° East 456 525 41,000  Level Albuquerque Center
02:39PM 34.9369 -106.4947 82° East 460 529 41,000  Level Albuquerque Center
02:40PM 34.9550 -106.3397 81° East 464 534 41,000  Level Albuquerque Center
02:41PM 34.9775 -106.1569 81° East 459 528 41,000  Level Albuquerque Center
02:42PM 34.9964 -106.0028 81° East 459 528 41,000  Level Albuquerque Center
02:43PM 35.0158 -105.8517 81° East 460 529 41,000  Level Albuquerque Center
02:44PM 35.0383 -105.6689 82° East 462 532 41,000  Level Albuquerque Center
02:45PM 35.0556 -105.5117 81° East 463 533 41,000  Level Albuquerque Center
02:46PM 35.0744 -105.3569 82° East 459 528 41,000  Level Albuquerque Center
02:47PM 35.0928 -105.2022 82° East 458 527 41,000  Level Albuquerque Center
02:48PM 35.1108 -105.0494 78° East 454 522 41,000  Level Albuquerque Center
02:49PM 35.1361 -104.8972 74° East 453 521 41,000  Level Albuquerque Center
02:50PM 35.1775 -104.7222 76° East 453 521 41,000  Level Albuquerque Center
02:51PM 35.2081 -104.5697 76° East 454 522 41,000  Level Albuquerque Center
02:52PM 35.2397 -104.4175 76° East 459 528 41,000  Level Albuquerque Center
02:53PM 35.2700 -104.2678 76° East 456 525 41,000  Level Albuquerque Center
02:54PM 35.2994 -104.1189 76° East 454 522 41,000  Level Albuquerque Center
02:55PM 35.3319 -103.9533 77° East 454 522 41,000  Level Albuquerque Center
02:56PM 35.3611 -103.8017 76° East 454 522 41,000  Level Albuquerque Center
02:58PM 35.3911 -103.6503 76° East 454 522 41,000  Level Albuquerque Center
02:59PM 35.4211 -103.4975 77° East 455 524 41,000  Level Albuquerque Center
03:00PM 35.4556 -103.3172 77° East 460 529 41,000  Level Albuquerque Center
03:01PM 35.4897 -103.1378 76° East 460 529 41,000  Level Albuquerque Center
03:02PM 35.5197 -102.9839 78° East 460 529 41,000  Level Albuquerque Center
03:03PM 35.5475 -102.8286 77° East 461 531 41,000  Level Albuquerque Center
03:04PM 35.5797 -102.6578 77° East 461 531 41,000  Level Albuquerque Center
03:05PM 35.6072 -102.5050 77° East 460 529 41,000  Level Albuquerque Center
03:06PM 35.6358 -102.3519 78° East 458 527 41,000  Level Albuquerque Center
03:07PM 35.6625 -102.1986 77° East 457 526 41,000  Level Albuquerque Center
03:08PM 35.6906 -102.0467 77° East 455 524 41,000  Level Albuquerque Center
03:09PM 35.7242 -101.8636 78° East 453 521 41,000  Level Albuquerque Center
03:10PM 35.7511 -101.7106 81° East 454 522 41,000  Level Albuquerque Center
03:11PM 35.7711 -101.5572 88° East 453 521 41,000  Level Albuquerque Center
03:12PM 35.7756 -101.4017 88° East 453 521 41,000  Level Albuquerque Center
03:13PM 35.7794 -101.2464 89° East 453 521 41,000  Level Albuquerque Center
03:14PM 35.7825 -101.0906 89° East 453 521 41,000  Level Albuquerque Center
03:15PM 35.7856 -100.9275 89° East 453 521 41,000  Level Albuquerque Center
03:16PM 35.7886 -100.7717 89° East 454 522 41,000  Level Albuquerque Center
03:17PM 35.7919 -100.5847 89° East 455 524 41,000  Level Albuquerque Center
03:18PM 35.7939 -100.4286 89° East 455 524 41,000  Level Albuquerque Center
03:20PM 35.7958 -100.2744 89° East 453 521 41,000  Level Albuquerque Center
03:21PM 35.7978 -100.1217 89° East 448 516 41,000  Level Albuquerque Center
03:22PM 35.7997 -99.9689 89° East 447 514 41,000  Level Albuquerque Center
03:23PM 35.8011 -99.8178 89° East 444 511 41,000  Level Albuquerque Center
03:24PM 35.8025 -99.6353 89° East 445 512 41,000  Level Albuquerque Center
03:25PM 35.8042 -99.4833 90° East 445 512 41,000 -60 Level Albuquerque Center
03:26PM 35.8050 -99.3325 90° East 445 512 40,900 -420 Descending Albuquerque Center
03:27PM 35.8050 -99.1817 90° East 447 514 40,200 -960 Descending Albuquerque Center
03:28PM 35.8053 -98.9694 90° East 436 502 38,700 -1,320 Descending Fort Worth Center
03:30PM 35.8064 -98.7294 90° East 421 484 36,500 -1,500 Descending Kansas City Center
03:31PM 35.8069 -98.5936 91° East 410 472 34,800 -1,740 Descending Kansas City Center
03:32PM 35.8050 -98.4631 90° East 397 457 33,100 -1,680 Descending Kansas City Center
03:33PM 35.8053 -98.3322 90° East 383 441 31,500 -1,680 Descending Kansas City Center
03:34PM 35.8056 -98.1889 90° East 389 448 29,800 -1,740 Descending Kansas City Center
03:35PM 35.8058 -98.0431 81° East 414 476 28,100 -1,620 Descending Kansas City Center
03:36PM 35.8222 -97.9078 77° East 425 489 26,600 -1,620 Descending Kansas City Center
03:37PM 35.8492 -97.7631 76° East 430 495 24,900 -1,320 Descending Kansas City Center
03:38PM 35.8781 -97.6206 78° East 430 495 24,000 -900 Descending Kansas City Center
03:39PM 35.9003 -97.4856 77° East 419 482 23,200 -1,200 Descending Kansas City Center
03:40PM 35.9292 -97.3353 76° East 407 468 21,700 -1,500 Descending Kansas City Center
03:41PM 35.9550 -97.2028 79° East 407 468 20,300 -1,500 Descending Kansas City Center
03:42PM 35.9769 -97.0600 77° East 412 474 18,700 -1,920 Descending Kansas City Center
03:43PM 36.0006 -96.9297 77° East 406 467 16,500 -2,280 Descending Kansas City Center
03:44PM 36.0194 -96.8250 80° East 360 414 14,200 -2,280 Descending Kansas City Center
03:45PM 36.0314 -96.7381 76° East 303 349 12,300 -2,100 Descending Kansas City Center
03:46PM 36.0522 -96.6358 77° East 299 344 10,100 -2,100 Descending Kansas City Center
03:47PM 36.0706 -96.5386 78° East 286 329 7,800 -2,100 Descending Kansas City Center
03:48PM 36.0867 -96.4414 79° East 286 329 6,000 -1,620 Descending Kansas City Center
03:49PM 36.1006 -96.3544 77° East 271 312 4,600 -1,620 Descending Kansas City Center
03:50PM 36.1164 -96.2700 85° East 260 299 2,800 -1,080 Descending Kansas City Center
03:51PM 36.1217 -96.1981 89° East 236 272 2,500 -180 Descending Kansas City Center
03:52PM 36.1225 -96.1339 102° East 207 238 2,500  Level Kansas City Center
03:53PM 36.1128 -96.0794 102° East 178 205 2,500  Level Kansas City Center
03:54PM 36.1033 -96.0228 115° Southeast 166 191 2,500 -300 Level Kansas City Center
03:55PM 36.0869 -95.9789 183° South 154 177 2,000 -900 Descending Kansas City Center
03:56PM 36.0517 -95.9808 135° Southeast 116 133 800 -1,200 Descending Kansas City Center
04:06PM 35.1854 -94.9213 135° Southeast  Level FlightAware Approximate